sensor_id;sensor_type;location;lat;lon;timestamp;temperature;humidity
41816;DHT22;27814;53.452;-6.180;2022-12-20T00:01:33;10.30;99.90
41816;DHT22;27814;53.452;-6.180;2022-12-20T00:04:04;10.30;99.90
41816;DHT22;27814;53.452;-6.180;2022-12-20T00:06:34;10.30;99.90
41816;DHT22;27814;53.452;-6.180;2022-12-20T00:09:05;10.30;99.90
41816;DHT22;27814;53.452;-6.180;2022-12-20T00:11:35;10.30;99.90
41816;DHT22;27814;53.452;-6.180;2022-12-20T00:14:05;10.30;99.90
41816;DHT22;27814;53.452;-6.180;2022-12-20T00:16:35;10.30;99.90
41816;DHT22;27814;53.452;-6.180;2022-12-20T00:19:05;10.30;99.90
41816;DHT22;27814;53.452;-6.180;2022-12-20T00:21:34;10.30;99.90
41816;DHT22;27814;53.452;-6.180;2022-12-20T00:24:05;10.30;99.90
41816;DHT22;27814;53.452;-6.180;2022-12-20T00:26:34;10.30;99.90
41816;DHT22;27814;53.452;-6.180;2022-12-20T00:29:04;10.30;99.90
41816;DHT22;27814;53.452;-6.180;2022-12-20T00:31:33;10.30;99.90
41816;DHT22;27814;53.452;-6.180;2022-12-20T00:34:01;10.30;99.90
41816;DHT22;27814;53.452;-6.180;2022-12-20T00:36:31;10.30;99.90
41816;DHT22;27814;53.452;-6.180;2022-12-20T00:39:00;10.30;99.90
41816;DHT22;27814;53.452;-6.180;2022-12-20T00:41:33;10.30;99.90
41816;DHT22;27814;53.452;-6.180;2022-12-20T00:44:02;10.30;99.90
41816;DHT22;27814;53.452;-6.180;2022-12-20T00:46:31;10.30;99.90
41816;DHT22;27814;53.452;-6.180;2022-12-20T00:49:01;10.40;99.90
41816;DHT22;27814;53.452;-6.180;2022-12-20T00:51:30;10.40;99.90
41816;DHT22;27814;53.452;-6.180;2022-12-20T00:53:59;10.40;99.90
41816;DHT22;27814;53.452;-6.180;2022-12-20T00:56:29;10.50;99.90
41816;DHT22;27814;53.452;-6.180;2022-12-20T00:58:58;10.50;99.90
41816;DHT22;27814;53.452;-6.180;2022-12-20T01:01:28;10.50;99.90
41816;DHT22;27814;53.452;-6.180;2022-12-20T01:03:58;10.50;99.90
41816;DHT22;27814;53.452;-6.180;2022-12-20T01:06:26;10.50;99.90
41816;DHT22;27814;53.452;-6.180;2022-12-20T01:08:56;10.60;99.90
41816;DHT22;27814;53.452;-6.180;2022-12-20T01:11:26;10.60;99.90
41816;DHT22;27814;53.452;-6.180;2022-12-20T01:13:57;10.60;99.90
41816;DHT22;27814;53.452;-6.180;2022-12-20T01:16:29;10.60;99.90
41816;DHT22;27814;53.452;-6.180;2022-12-20T01:18:58;10.70;99.90
41816;DHT22;27814;53.452;-6.180;2022-12-20T01:21:26;10.60;99.90
41816;DHT22;27814;53.452;-6.180;2022-12-20T01:23:55;10.70;99.90
41816;DHT22;27814;53.452;-6.180;2022-12-20T01:26:25;10.70;99.90
41816;DHT22;27814;53.452;-6.180;2022-12-20T01:28:57;10.70;99.90
41816;DHT22;27814;53.452;-6.180;2022-12-20T01:31:27;10.60;99.90
41816;DHT22;27814;53.452;-6.180;2022-12-20T01:33:58;10.60;99.90
41816;DHT22;27814;53.452;-6.180;2022-12-20T01:36:28;10.60;99.90
41816;DHT22;27814;53.452;-6.180;2022-12-20T01:38:58;10.50;99.90
41816;DHT22;27814;53.452;-6.180;2022-12-20T01:41:27;10.50;99.90
41816;DHT22;27814;53.452;-6.180;2022-12-20T01:44:00;10.50;99.90
41816;DHT22;27814;53.452;-6.180;2022-12-20T01:46:31;10.50;99.90
41816;DHT22;27814;53.452;-6.180;2022-12-20T01:49:03;10.50;99.90
41816;DHT22;27814;53.452;-6.180;2022-12-20T01:51:35;10.40;99.90
41816;DHT22;27814;53.452;-6.180;2022-12-20T01:54:08;10.40;99.90
41816;DHT22;27814;53.452;-6.180;2022-12-20T01:56:42;10.40;99.90
41816;DHT22;27814;53.452;-6.180;2022-12-20T01:59:15;10.40;99.90
41816;DHT22;27814;53.452;-6.180;2022-12-20T02:01:43;10.40;99.90
41816;DHT22;27814;53.452;-6.180;2022-12-20T02:04:12;10.40;99.90
41816;DHT22;27814;53.452;-6.180;2022-12-20T02:06:40;10.40;99.90
41816;DHT22;27814;53.452;-6.180;2022-12-20T02:09:09;10.40;99.90
41816;DHT22;27814;53.452;-6.180;2022-12-20T02:11:49;10.40;99.90
41816;DHT22;27814;53.452;-6.180;2022-12-20T02:14:35;10.40;99.90
41816;DHT22;27814;53.452;-6.180;2022-12-20T02:17:11;10.40;99.90
41816;DHT22;27814;53.452;-6.180;2022-12-20T02:22:59;10.30;99.90
41816;DHT22;27814;53.452;-6.180;2022-12-20T02:25:51;10.40;99.90
41816;DHT22;27814;53.452;-6.180;2022-12-20T02:28:43;10.30;99.90
41816;DHT22;27814;53.452;-6.180;2022-12-20T02:31:18;10.30;99.90
41816;DHT22;27814;53.452;-6.180;2022-12-20T02:33:48;10.30;99.90
41816;DHT22;27814;53.452;-6.180;2022-12-20T02:36:19;10.30;99.90
41816;DHT22;27814;53.452;-6.180;2022-12-20T02:38:47;10.30;99.90
41816;DHT22;27814;53.452;-6.180;2022-12-20T02:41:19;10.20;99.90
41816;DHT22;27814;53.452;-6.180;2022-12-20T02:43:50;10.30;99.90
41816;DHT22;27814;53.452;-6.180;2022-12-20T02:46:39;10.30;99.90
41816;DHT22;27814;53.452;-6.180;2022-12-20T02:49:11;10.20;99.90
41816;DHT22;27814;53.452;-6.180;2022-12-20T02:51:42;10.20;99.90
41816;DHT22;27814;53.452;-6.180;2022-12-20T02:54:12;10.20;99.90
41816;DHT22;27814;53.452;-6.180;2022-12-20T02:56:42;10.20;99.90
41816;DHT22;27814;53.452;-6.180;2022-12-20T02:59:16;10.20;99.90
41816;DHT22;27814;53.452;-6.180;2022-12-20T03:01:48;10.10;99.90
41816;DHT22;27814;53.452;-6.180;2022-12-20T03:04:21;10.20;99.90
41816;DHT22;27814;53.452;-6.180;2022-12-20T03:06:58;10.20;99.90
41816;DHT22;27814;53.452;-6.180;2022-12-20T03:09:27;10.10;99.90
41816;DHT22;27814;53.452;-6.180;2022-12-20T03:11:56;10.10;99.90
41816;DHT22;27814;53.452;-6.180;2022-12-20T03:14:24;10.10;99.90
41816;DHT22;27814;53.452;-6.180;2022-12-20T03:16:54;10.10;99.90
41816;DHT22;27814;53.452;-6.180;2022-12-20T03:19:23;10.10;99.90
41816;DHT22;27814;53.452;-6.180;2022-12-20T03:21:51;10.10;99.90
41816;DHT22;27814;53.452;-6.180;2022-12-20T03:24:20;10.10;99.90
41816;DHT22;27814;53.452;-6.180;2022-12-20T03:26:48;10.10;99.90
41816;DHT22;27814;53.452;-6.180;2022-12-20T03:29:17;10.10;99.90
41816;DHT22;27814;53.452;-6.180;2022-12-20T03:31:45;10.10;99.90
41816;DHT22;27814;53.452;-6.180;2022-12-20T03:34:15;10.10;99.90
41816;DHT22;27814;53.452;-6.180;2022-12-20T03:36:43;10.10;99.90
41816;DHT22;27814;53.452;-6.180;2022-12-20T03:39:11;10.00;99.90
41816;DHT22;27814;53.452;-6.180;2022-12-20T03:41:40;10.00;99.90
41816;DHT22;27814;53.452;-6.180;2022-12-20T03:44:09;10.00;99.90
41816;DHT22;27814;53.452;-6.180;2022-12-20T03:46:37;10.00;99.90
41816;DHT22;27814;53.452;-6.180;2022-12-20T03:49:05;10.00;99.90
41816;DHT22;27814;53.452;-6.180;2022-12-20T03:51:35;10.00;99.90
41816;DHT22;27814;53.452;-6.180;2022-12-20T03:54:03;10.00;99.90
41816;DHT22;27814;53.452;-6.180;2022-12-20T03:56:33;9.90;99.90
41816;DHT22;27814;53.452;-6.180;2022-12-20T03:59:01;10.00;99.90
41816;DHT22;27814;53.452;-6.180;2022-12-20T04:01:29;9.90;99.90
41816;DHT22;27814;53.452;-6.180;2022-12-20T04:04:03;9.90;99.90
41816;DHT22;27814;53.452;-6.180;2022-12-20T04:06:31;9.90;99.90
41816;DHT22;27814;53.452;-6.180;2022-12-20T04:09:01;9.90;99.90
41816;DHT22;27814;53.452;-6.180;2022-12-20T04:11:29;9.90;99.90
41816;DHT22;27814;53.452;-6.180;2022-12-20T04:13:57;9.90;99.90
41816;DHT22;27814;53.452;-6.180;2022-12-20T04:16:27;9.90;99.90
41816;DHT22;27814;53.452;-6.180;2022-12-20T04:18:56;9.90;99.90
41816;DHT22;27814;53.452;-6.180;2022-12-20T04:21:27;9.90;99.90
41816;DHT22;27814;53.452;-6.180;2022-12-20T04:23:56;9.80;99.90
41816;DHT22;27814;53.452;-6.180;2022-12-20T04:26:26;9.90;99.90
41816;DHT22;27814;53.452;-6.180;2022-12-20T04:28:55;9.90;99.90
41816;DHT22;27814;53.452;-6.180;2022-12-20T04:31:23;9.90;99.90
41816;DHT22;27814;53.452;-6.180;2022-12-20T04:33:52;9.90;99.90
41816;DHT22;27814;53.452;-6.180;2022-12-20T04:36:21;9.90;99.90
41816;DHT22;27814;53.452;-6.180;2022-12-20T04:38:49;9.90;99.90
41816;DHT22;27814;53.452;-6.180;2022-12-20T04:41:17;9.90;99.90
41816;DHT22;27814;53.452;-6.180;2022-12-20T04:43:52;9.80;99.90
41816;DHT22;27814;53.452;-6.180;2022-12-20T04:46:21;9.90;99.90
41816;DHT22;27814;53.452;-6.180;2022-12-20T04:48:50;9.90;99.90
41816;DHT22;27814;53.452;-6.180;2022-12-20T04:51:25;9.80;99.90
41816;DHT22;27814;53.452;-6.180;2022-12-20T04:53:53;9.80;99.90
41816;DHT22;27814;53.452;-6.180;2022-12-20T04:56:23;9.80;99.90
41816;DHT22;27814;53.452;-6.180;2022-12-20T04:58:55;9.80;99.90
41816;DHT22;27814;53.452;-6.180;2022-12-20T05:01:23;9.80;99.90
41816;DHT22;27814;53.452;-6.180;2022-12-20T05:03:53;9.80;99.90
41816;DHT22;27814;53.452;-6.180;2022-12-20T05:06:22;9.80;99.90
41816;DHT22;27814;53.452;-6.180;2022-12-20T05:08:50;9.80;99.90
41816;DHT22;27814;53.452;-6.180;2022-12-20T05:11:18;9.80;99.90
41816;DHT22;27814;53.452;-6.180;2022-12-20T05:13:46;9.70;99.90
41816;DHT22;27814;53.452;-6.180;2022-12-20T05:16:16;9.80;99.90
41816;DHT22;27814;53.452;-6.180;2022-12-20T05:18:44;9.80;99.90
41816;DHT22;27814;53.452;-6.180;2022-12-20T05:21:15;9.70;99.90
41816;DHT22;27814;53.452;-6.180;2022-12-20T05:24:01;9.70;99.90
41816;DHT22;27814;53.452;-6.180;2022-12-20T05:26:46;9.80;99.90
41816;DHT22;27814;53.452;-6.180;2022-12-20T05:29:15;9.80;99.90
41816;DHT22;27814;53.452;-6.180;2022-12-20T05:31:45;9.80;99.90
41816;DHT22;27814;53.452;-6.180;2022-12-20T05:34:14;9.80;99.90
41816;DHT22;27814;53.452;-6.180;2022-12-20T05:36:43;9.90;99.90
41816;DHT22;27814;53.452;-6.180;2022-12-20T05:39:11;9.80;99.90
41816;DHT22;27814;53.452;-6.180;2022-12-20T05:41:40;9.90;99.90
41816;DHT22;27814;53.452;-6.180;2022-12-20T05:44:09;9.90;99.90
41816;DHT22;27814;53.452;-6.180;2022-12-20T05:46:37;9.90;99.90
41816;DHT22;27814;53.452;-6.180;2022-12-20T05:49:07;9.90;99.90
41816;DHT22;27814;53.452;-6.180;2022-12-20T05:51:35;9.90;99.90
41816;DHT22;27814;53.452;-6.180;2022-12-20T05:54:04;9.90;99.90
41816;DHT22;27814;53.452;-6.180;2022-12-20T05:56:32;9.90;99.90
41816;DHT22;27814;53.452;-6.180;2022-12-20T05:59:01;9.90;99.90
41816;DHT22;27814;53.452;-6.180;2022-12-20T06:01:29;9.90;99.90
41816;DHT22;27814;53.452;-6.180;2022-12-20T06:03:57;9.80;99.90
41816;DHT22;27814;53.452;-6.180;2022-12-20T06:06:27;9.80;99.90
41816;DHT22;27814;53.452;-6.180;2022-12-20T06:08:55;9.80;99.90
41816;DHT22;27814;53.452;-6.180;2022-12-20T06:11:24;9.80;99.90
41816;DHT22;27814;53.452;-6.180;2022-12-20T06:13:56;9.70;99.90
41816;DHT22;27814;53.452;-6.180;2022-12-20T06:16:25;9.70;99.90
41816;DHT22;27814;53.452;-6.180;2022-12-20T06:18:54;9.70;99.90
41816;DHT22;27814;53.452;-6.180;2022-12-20T06:21:23;9.70;99.90
41816;DHT22;27814;53.452;-6.180;2022-12-20T06:23:54;9.70;99.90
41816;DHT22;27814;53.452;-6.180;2022-12-20T06:26:23;9.60;99.90
41816;DHT22;27814;53.452;-6.180;2022-12-20T06:28:51;9.70;99.90
41816;DHT22;27814;53.452;-6.180;2022-12-20T06:31:23;9.60;99.90
41816;DHT22;27814;53.452;-6.180;2022-12-20T06:33:51;9.60;99.90
41816;DHT22;27814;53.452;-6.180;2022-12-20T06:36:20;9.60;99.90
41816;DHT22;27814;53.452;-6.180;2022-12-20T06:38:48;9.60;99.90
41816;DHT22;27814;53.452;-6.180;2022-12-20T06:41:18;9.60;99.90
41816;DHT22;27814;53.452;-6.180;2022-12-20T06:43:46;9.50;99.90
41816;DHT22;27814;53.452;-6.180;2022-12-20T06:46:15;9.60;99.90
41816;DHT22;27814;53.452;-6.180;2022-12-20T06:48:43;9.50;99.90
41816;DHT22;27814;53.452;-6.180;2022-12-20T06:51:12;9.50;99.90
41816;DHT22;27814;53.452;-6.180;2022-12-20T06:53:40;9.50;99.90
41816;DHT22;27814;53.452;-6.180;2022-12-20T06:56:08;9.50;99.90
41816;DHT22;27814;53.452;-6.180;2022-12-20T06:58:38;9.50;99.90
41816;DHT22;27814;53.452;-6.180;2022-12-20T07:01:06;9.50;99.90
41816;DHT22;27814;53.452;-6.180;2022-12-20T07:03:35;9.40;99.90
41816;DHT22;27814;53.452;-6.180;2022-12-20T07:06:03;9.40;99.90
41816;DHT22;27814;53.452;-6.180;2022-12-20T07:08:32;9.40;99.90
41816;DHT22;27814;53.452;-6.180;2022-12-20T07:11:04;9.40;99.90
41816;DHT22;27814;53.452;-6.180;2022-12-20T07:13:33;9.40;99.90
41816;DHT22;27814;53.452;-6.180;2022-12-20T07:16:03;9.40;99.90
41816;DHT22;27814;53.452;-6.180;2022-12-20T07:18:32;9.40;99.90
41816;DHT22;27814;53.452;-6.180;2022-12-20T07:21:02;9.40;99.90
41816;DHT22;27814;53.452;-6.180;2022-12-20T07:23:31;9.40;99.90
41816;DHT22;27814;53.452;-6.180;2022-12-20T07:26:00;9.40;99.90
41816;DHT22;27814;53.452;-6.180;2022-12-20T07:28:30;9.30;99.90
41816;DHT22;27814;53.452;-6.180;2022-12-20T07:31:00;9.30;99.90
41816;DHT22;27814;53.452;-6.180;2022-12-20T07:33:30;9.30;99.90
41816;DHT22;27814;53.452;-6.180;2022-12-20T07:36:00;9.30;99.90
41816;DHT22;27814;53.452;-6.180;2022-12-20T07:38:28;9.30;99.90
41816;DHT22;27814;53.452;-6.180;2022-12-20T07:40:56;9.30;99.90
41816;DHT22;27814;53.452;-6.180;2022-12-20T07:43:25;9.30;99.90
41816;DHT22;27814;53.452;-6.180;2022-12-20T07:45:54;9.30;99.90
41816;DHT22;27814;53.452;-6.180;2022-12-20T07:48:23;9.30;99.90
41816;DHT22;27814;53.452;-6.180;2022-12-20T07:50:55;9.30;99.90
41816;DHT22;27814;53.452;-6.180;2022-12-20T07:53:27;9.40;99.90
41816;DHT22;27814;53.452;-6.180;2022-12-20T07:55:56;9.30;99.90
41816;DHT22;27814;53.452;-6.180;2022-12-20T07:58:26;9.30;99.90
41816;DHT22;27814;53.452;-6.180;2022-12-20T08:00:56;9.30;99.90
41816;DHT22;27814;53.452;-6.180;2022-12-20T08:03:29;9.20;99.90
41816;DHT22;27814;53.452;-6.180;2022-12-20T08:06:02;9.20;99.90
41816;DHT22;27814;53.452;-6.180;2022-12-20T08:08:32;9.20;99.90
41816;DHT22;27814;53.452;-6.180;2022-12-20T08:11:03;9.20;99.90
41816;DHT22;27814;53.452;-6.180;2022-12-20T08:13:32;9.20;99.90
41816;DHT22;27814;53.452;-6.180;2022-12-20T08:16:06;9.20;99.90
41816;DHT22;27814;53.452;-6.180;2022-12-20T08:18:34;9.20;99.90
41816;DHT22;27814;53.452;-6.180;2022-12-20T08:21:04;9.20;99.90
41816;DHT22;27814;53.452;-6.180;2022-12-20T08:23:32;9.20;99.90
41816;DHT22;27814;53.452;-6.180;2022-12-20T08:26:01;9.20;99.90
41816;DHT22;27814;53.452;-6.180;2022-12-20T08:28:29;9.20;99.90
41816;DHT22;27814;53.452;-6.180;2022-12-20T08:31:01;9.20;99.90
41816;DHT22;27814;53.452;-6.180;2022-12-20T08:33:30;9.10;99.90
41816;DHT22;27814;53.452;-6.180;2022-12-20T08:35:58;9.10;99.90
41816;DHT22;27814;53.452;-6.180;2022-12-20T08:38:30;9.10;99.90
41816;DHT22;27814;53.452;-6.180;2022-12-20T08:41:01;9.10;99.90
41816;DHT22;27814;53.452;-6.180;2022-12-20T08:43:31;9.10;99.90
41816;DHT22;27814;53.452;-6.180;2022-12-20T08:45:59;9.10;99.90
41816;DHT22;27814;53.452;-6.180;2022-12-20T08:48:28;9.10;99.90
41816;DHT22;27814;53.452;-6.180;2022-12-20T08:50:59;9.10;99.90
41816;DHT22;27814;53.452;-6.180;2022-12-20T08:53:29;9.20;99.90
41816;DHT22;27814;53.452;-6.180;2022-12-20T08:56:03;9.10;99.90
41816;DHT22;27814;53.452;-6.180;2022-12-20T08:58:32;9.20;99.90
41816;DHT22;27814;53.452;-6.180;2022-12-20T09:01:02;9.20;99.90
41816;DHT22;27814;53.452;-6.180;2022-12-20T09:03:33;9.10;99.90
41816;DHT22;27814;53.452;-6.180;2022-12-20T09:06:04;9.20;99.90
41816;DHT22;27814;53.452;-6.180;2022-12-20T09:08:35;9.20;99.90
41816;DHT22;27814;53.452;-6.180;2022-12-20T09:11:05;9.20;99.90
41816;DHT22;27814;53.452;-6.180;2022-12-20T09:13:34;9.20;99.90
41816;DHT22;27814;53.452;-6.180;2022-12-20T09:16:10;9.20;99.90
41816;DHT22;27814;53.452;-6.180;2022-12-20T09:18:39;9.20;99.90
41816;DHT22;27814;53.452;-6.180;2022-12-20T09:21:09;9.20;99.90
41816;DHT22;27814;53.452;-6.180;2022-12-20T09:23:39;9.10;99.90
41816;DHT22;27814;53.452;-6.180;2022-12-20T09:26:10;9.20;99.90
41816;DHT22;27814;53.452;-6.180;2022-12-20T09:28:39;9.20;99.90
41816;DHT22;27814;53.452;-6.180;2022-12-20T09:31:10;9.20;99.90
41816;DHT22;27814;53.452;-6.180;2022-12-20T09:33:39;9.20;99.90
41816;DHT22;27814;53.452;-6.180;2022-12-20T09:36:10;9.20;99.90
41816;DHT22;27814;53.452;-6.180;2022-12-20T09:38:40;9.10;99.90
41816;DHT22;27814;53.452;-6.180;2022-12-20T09:41:22;9.20;99.90
41816;DHT22;27814;53.452;-6.180;2022-12-20T09:43:51;9.20;99.90
41816;DHT22;27814;53.452;-6.180;2022-12-20T09:46:21;9.20;99.90
41816;DHT22;27814;53.452;-6.180;2022-12-20T09:48:51;9.20;99.90
41816;DHT22;27814;53.452;-6.180;2022-12-20T09:51:31;9.20;99.90
41816;DHT22;27814;53.452;-6.180;2022-12-20T09:54:10;9.20;99.90
41816;DHT22;27814;53.452;-6.180;2022-12-20T09:56:44;9.20;99.90
41816;DHT22;27814;53.452;-6.180;2022-12-20T09:59:17;9.20;99.90
41816;DHT22;27814;53.452;-6.180;2022-12-20T10:01:47;9.20;99.90
41816;DHT22;27814;53.452;-6.180;2022-12-20T10:04:20;9.30;99.90
41816;DHT22;27814;53.452;-6.180;2022-12-20T10:07:13;9.30;99.90
41816;DHT22;27814;53.452;-6.180;2022-12-20T10:10:08;9.30;99.90
41816;DHT22;27814;53.452;-6.180;2022-12-20T10:12:45;9.30;99.90
41816;DHT22;27814;53.452;-6.180;2022-12-20T10:15:19;9.30;99.90
41816;DHT22;27814;53.452;-6.180;2022-12-20T10:18:08;9.20;99.90
41816;DHT22;27814;53.452;-6.180;2022-12-20T10:20:54;9.20;99.90
41816;DHT22;27814;53.452;-6.180;2022-12-20T10:23:29;9.30;99.90
41816;DHT22;27814;53.452;-6.180;2022-12-20T10:26:01;9.30;99.90
41816;DHT22;27814;53.452;-6.180;2022-12-20T10:28:32;9.30;99.90
41816;DHT22;27814;53.452;-6.180;2022-12-20T10:31:04;9.40;99.90
41816;DHT22;27814;53.452;-6.180;2022-12-20T10:33:34;9.40;99.90
41816;DHT22;27814;53.452;-6.180;2022-12-20T10:36:20;9.40;99.90
41816;DHT22;27814;53.452;-6.180;2022-12-20T10:38:51;9.50;99.90
41816;DHT22;27814;53.452;-6.180;2022-12-20T10:41:23;9.50;99.90
41816;DHT22;27814;53.452;-6.180;2022-12-20T10:43:58;9.50;99.90
41816;DHT22;27814;53.452;-6.180;2022-12-20T10:46:38;9.50;99.90
41816;DHT22;27814;53.452;-6.180;2022-12-20T10:49:28;9.60;99.90
41816;DHT22;27814;53.452;-6.180;2022-12-20T10:51:59;9.60;99.90
41816;DHT22;27814;53.452;-6.180;2022-12-20T10:54:33;9.60;99.90
41816;DHT22;27814;53.452;-6.180;2022-12-20T10:57:17;9.70;99.90
41816;DHT22;27814;53.452;-6.180;2022-12-20T10:59:49;9.70;99.90
41816;DHT22;27814;53.452;-6.180;2022-12-20T11:02:29;9.70;99.90
41816;DHT22;27814;53.452;-6.180;2022-12-20T11:05:21;9.70;99.90
41816;DHT22;27814;53.452;-6.180;2022-12-20T11:07:53;9.70;99.90
41816;DHT22;27814;53.452;-6.180;2022-12-20T11:10:43;9.70;99.90
41816;DHT22;27814;53.452;-6.180;2022-12-20T11:13:24;9.70;99.90
41816;DHT22;27814;53.452;-6.180;2022-12-20T11:15:54;9.80;99.90
41816;DHT22;27814;53.452;-6.180;2022-12-20T11:18:40;9.80;99.90
41816;DHT22;27814;53.452;-6.180;2022-12-20T11:21:21;9.80;99.90
41816;DHT22;27814;53.452;-6.180;2022-12-20T11:24:01;9.90;99.90
41816;DHT22;27814;53.452;-6.180;2022-12-20T11:26:40;9.90;99.90
41816;DHT22;27814;53.452;-6.180;2022-12-20T11:29:26;9.90;99.90
41816;DHT22;27814;53.452;-6.180;2022-12-20T11:32:02;9.90;99.90
41816;DHT22;27814;53.452;-6.180;2022-12-20T11:34:40;9.90;99.90
41816;DHT22;27814;53.452;-6.180;2022-12-20T11:37:18;9.90;99.90
41816;DHT22;27814;53.452;-6.180;2022-12-20T11:40:02;9.90;99.90
41816;DHT22;27814;53.452;-6.180;2022-12-20T11:42:42;10.00;99.90
41816;DHT22;27814;53.452;-6.180;2022-12-20T11:45:22;10.00;99.90
41816;DHT22;27814;53.452;-6.180;2022-12-20T11:48:25;10.00;99.90
41816;DHT22;27814;53.452;-6.180;2022-12-20T11:51:03;10.00;99.90
41816;DHT22;27814;53.452;-6.180;2022-12-20T11:53:41;10.00;99.90
41816;DHT22;27814;53.452;-6.180;2022-12-20T11:56:15;10.10;99.90
41816;DHT22;27814;53.452;-6.180;2022-12-20T11:58:50;10.10;99.90
41816;DHT22;27814;53.452;-6.180;2022-12-20T12:01:25;10.10;99.90
41816;DHT22;27814;53.452;-6.180;2022-12-20T12:04:03;10.10;99.90
41816;DHT22;27814;53.452;-6.180;2022-12-20T12:06:37;10.10;99.90
41816;DHT22;27814;53.452;-6.180;2022-12-20T12:09:14;10.10;99.90
41816;DHT22;27814;53.452;-6.180;2022-12-20T12:11:48;10.10;99.90
41816;DHT22;27814;53.452;-6.180;2022-12-20T12:14:43;10.10;99.90
41816;DHT22;27814;53.452;-6.180;2022-12-20T12:17:20;10.10;99.90
41816;DHT22;27814;53.452;-6.180;2022-12-20T12:19:54;10.10;99.90
41816;DHT22;27814;53.452;-6.180;2022-12-20T12:22:27;10.10;99.90
41816;DHT22;27814;53.452;-6.180;2022-12-20T12:25:01;10.10;99.90
41816;DHT22;27814;53.452;-6.180;2022-12-20T12:27:32;10.20;99.90
41816;DHT22;27814;53.452;-6.180;2022-12-20T12:30:01;10.20;99.90
41816;DHT22;27814;53.452;-6.180;2022-12-20T12:32:34;10.20;99.90
41816;DHT22;27814;53.452;-6.180;2022-12-20T12:44:36;10.20;99.90
41816;DHT22;27814;53.452;-6.180;2022-12-20T12:47:12;10.20;99.90
41816;DHT22;27814;53.452;-6.180;2022-12-20T12:49:47;10.30;99.90
41816;DHT22;27814;53.452;-6.180;2022-12-20T12:52:41;10.20;99.90
41816;DHT22;27814;53.452;-6.180;2022-12-20T12:55:40;10.30;99.90
41816;DHT22;27814;53.452;-6.180;2022-12-20T12:58:14;10.30;99.90
41816;DHT22;27814;53.452;-6.180;2022-12-20T13:00:58;10.30;99.90
41816;DHT22;27814;53.452;-6.180;2022-12-20T13:03:44;10.20;99.90
41816;DHT22;27814;53.452;-6.180;2022-12-20T13:06:50;10.20;99.90
41816;DHT22;27814;53.452;-6.180;2022-12-20T13:09:37;10.20;99.90
41816;DHT22;27814;53.452;-6.180;2022-12-20T13:18:33;10.30;99.90
41816;DHT22;27814;53.452;-6.180;2022-12-20T13:21:31;10.30;99.70
41816;DHT22;27814;53.452;-6.180;2022-12-20T13:27:31;10.20;99.50
41816;DHT22;27814;53.452;-6.180;2022-12-20T13:33:23;10.30;99.30
41816;DHT22;27814;53.452;-6.180;2022-12-20T13:35:57;10.30;99.20
41816;DHT22;27814;53.452;-6.180;2022-12-20T13:38:40;10.20;99.00
41816;DHT22;27814;53.452;-6.180;2022-12-20T13:41:33;10.30;99.00
41816;DHT22;27814;53.452;-6.180;2022-12-20T13:44:20;10.30;98.90
41816;DHT22;27814;53.452;-6.180;2022-12-20T13:46:54;10.30;98.90
41816;DHT22;27814;53.452;-6.180;2022-12-20T13:49:30;10.30;98.80
41816;DHT22;27814;53.452;-6.180;2022-12-20T13:52:23;10.30;98.80
41816;DHT22;27814;53.452;-6.180;2022-12-20T13:54:54;10.30;98.70
41816;DHT22;27814;53.452;-6.180;2022-12-20T13:57:30;10.20;98.60
41816;DHT22;27814;53.452;-6.180;2022-12-20T14:00:03;10.20;98.70
41816;DHT22;27814;53.452;-6.180;2022-12-20T14:02:38;10.20;98.60
41816;DHT22;27814;53.452;-6.180;2022-12-20T14:05:15;10.20;98.70
41816;DHT22;27814;53.452;-6.180;2022-12-20T14:07:45;10.20;98.70
41816;DHT22;27814;53.452;-6.180;2022-12-20T14:10:18;10.20;98.70
41816;DHT22;27814;53.452;-6.180;2022-12-20T14:12:48;10.20;98.80
41816;DHT22;27814;53.452;-6.180;2022-12-20T14:15:26;10.20;98.80
41816;DHT22;27814;53.452;-6.180;2022-12-20T14:17:56;10.20;98.80
41816;DHT22;27814;53.452;-6.180;2022-12-20T14:20:29;10.30;98.80
41816;DHT22;27814;53.452;-6.180;2022-12-20T14:23:02;10.30;98.80
41816;DHT22;27814;53.452;-6.180;2022-12-20T14:25:42;10.20;98.60
41816;DHT22;27814;53.452;-6.180;2022-12-20T14:28:18;10.20;98.50
41816;DHT22;27814;53.452;-6.180;2022-12-20T14:30:55;10.20;98.50
41816;DHT22;27814;53.452;-6.180;2022-12-20T14:33:31;10.20;98.60
41816;DHT22;27814;53.452;-6.180;2022-12-20T14:36:17;10.20;98.50
41816;DHT22;27814;53.452;-6.180;2022-12-20T14:38:47;10.20;98.30
41816;DHT22;27814;53.452;-6.180;2022-12-20T14:41:30;10.20;98.30
41816;DHT22;27814;53.452;-6.180;2022-12-20T14:44:02;10.20;98.20
41816;DHT22;27814;53.452;-6.180;2022-12-20T14:46:34;10.20;98.20
41816;DHT22;27814;53.452;-6.180;2022-12-20T14:49:17;10.10;98.10
41816;DHT22;27814;53.452;-6.180;2022-12-20T14:51:48;10.20;98.10
41816;DHT22;27814;53.452;-6.180;2022-12-20T14:54:19;10.20;98.00
41816;DHT22;27814;53.452;-6.180;2022-12-20T14:57:10;10.10;97.90
41816;DHT22;27814;53.452;-6.180;2022-12-20T14:59:57;10.10;97.80
41816;DHT22;27814;53.452;-6.180;2022-12-20T15:02:36;10.10;97.90
41816;DHT22;27814;53.452;-6.180;2022-12-20T15:07:51;10.10;97.80
41816;DHT22;27814;53.452;-6.180;2022-12-20T15:10:20;10.10;97.90
41816;DHT22;27814;53.452;-6.180;2022-12-20T15:12:49;10.10;98.00
41816;DHT22;27814;53.452;-6.180;2022-12-20T15:15:17;10.10;98.00
41816;DHT22;27814;53.452;-6.180;2022-12-20T15:18:07;10.00;98.00
41816;DHT22;27814;53.452;-6.180;2022-12-20T15:20:36;10.00;98.10
41816;DHT22;27814;53.452;-6.180;2022-12-20T15:23:04;9.90;98.20
41816;DHT22;27814;53.452;-6.180;2022-12-20T15:25:36;9.90;98.20
41816;DHT22;27814;53.452;-6.180;2022-12-20T15:28:14;9.80;98.30
41816;DHT22;27814;53.452;-6.180;2022-12-20T15:30:44;9.80;98.40
41816;DHT22;27814;53.452;-6.180;2022-12-20T15:33:17;9.80;98.50
41816;DHT22;27814;53.452;-6.180;2022-12-20T15:35:47;9.80;98.60
41816;DHT22;27814;53.452;-6.180;2022-12-20T15:38:17;9.70;98.70
41816;DHT22;27814;53.452;-6.180;2022-12-20T15:41:10;9.70;98.70
41816;DHT22;27814;53.452;-6.180;2022-12-20T15:43:41;9.70;98.90
41816;DHT22;27814;53.452;-6.180;2022-12-20T15:46:10;9.60;99.00
41816;DHT22;27814;53.452;-6.180;2022-12-20T15:48:39;9.60;99.10
41816;DHT22;27814;53.452;-6.180;2022-12-20T15:51:14;9.60;99.20
41816;DHT22;27814;53.452;-6.180;2022-12-20T15:53:43;9.60;99.30
41816;DHT22;27814;53.452;-6.180;2022-12-20T15:56:16;9.60;99.40
41816;DHT22;27814;53.452;-6.180;2022-12-20T15:58:48;9.60;99.50
41816;DHT22;27814;53.452;-6.180;2022-12-20T16:01:24;9.60;99.60
41816;DHT22;27814;53.452;-6.180;2022-12-20T16:03:58;9.60;99.70
41816;DHT22;27814;53.452;-6.180;2022-12-20T16:06:26;9.60;99.80
41816;DHT22;27814;53.452;-6.180;2022-12-20T16:08:55;9.60;99.80
41816;DHT22;27814;53.452;-6.180;2022-12-20T16:11:25;9.60;99.90
41816;DHT22;27814;53.452;-6.180;2022-12-20T16:13:54;9.50;99.90
41816;DHT22;27814;53.452;-6.180;2022-12-20T16:16:23;9.50;99.90
41816;DHT22;27814;53.452;-6.180;2022-12-20T16:18:53;9.50;99.90
41816;DHT22;27814;53.452;-6.180;2022-12-20T16:21:24;9.40;99.90
41816;DHT22;27814;53.452;-6.180;2022-12-20T16:23:53;9.40;99.90
41816;DHT22;27814;53.452;-6.180;2022-12-20T16:26:23;9.30;99.90
41816;DHT22;27814;53.452;-6.180;2022-12-20T16:28:53;9.30;99.90